Wilson Norfolk — 9HA2466 — position and weather

sailwx.info

Track history (hours):
 
Tides and Currents Weather Stations Pressure Air Temp Water Temp Dewpoint Dewpoint Depression Visibility Wind Speed Wind Dir Waves Ship Positions

Wilson Norfolk

Last reported at 2015-Aug-02 05:26 UTC. Time now 2015-Aug-02 14:20 UTC.
Position N 57°48' E 010°15'.

Length 123 m; draft 5.4 m.

Type: Ship. MMSI: 248678000.

Date/timePositionNaut miles runAvg speedWind from/ knotsBaromVisibWave heightAir tempDewpointWater temp
2015-Aug-02 05:26N 57°48' E 010°15'910.1
2015-Aug-02 04:33N 57°48' E 010°31'10 9.8
2015-Aug-02 03:32N 57°46' E 010°50'1110.9
2015-Aug-02 02:33N 57°39' E 011°05'1111.4
2015-Aug-02 01:33N 57°32' E 011°21'1211.6
2015-Aug-02 00:33N 57°22' E 011°31'1212.2
2015-Aug-01 23:33N 57°10' E 011°39'1312.5
2015-Aug-01 22:32N 56°58' E 011°47'1212.2
2015-Aug-01 21:33N 56°47' E 011°54'1211.8
2015-Aug-01 20:33N 56°36' E 012°00'1211.6
2015-Aug-01 19:33N 56°25' E 012°10'1212.4
2015-Aug-01 18:34N 56°15' E 012°23'1212.3
2015-Aug-01 17:33N 56°05' E 012°36'1312.9
2015-Aug-01 16:34N 55°53' E 012°45'1312.6
2015-Aug-01 15:33N 55°41' E 012°41'1211.9
2015-Aug-01 14:33N 55°29' E 012°42'1111.5
2015-Aug-01 13:34N 55°18' E 012°45'1211.9
2015-Aug-01 12:33N 55°13' E 013°04'1412.2
2015-Aug-01 11:25N 55°08' E 013°27'1012.0
2015-Aug-01 10:33N 55°04' E 013°43'1211.9
2015-Aug-01 09:33N 54°59' E 014°02'1211.8
2015-Aug-01 08:34N 54°57' E 014°22'1211.7
2015-Aug-01 07:34N 54°56' E 014°43'1211.6
2015-Aug-01 06:33N 54°54' E 015°03'1111.2
2015-Aug-01 05:33N 54°53' E 015°22'7610.5
2015-Jul-31 22:22N 54°56' E 017°34'13 9.9
2015-Jul-31 21:05N 54°57' E 017°55'5 9.9
2015-Jul-31 20:33N 54°57' E 018°05'10 9.7
2015-Jul-31 19:34N 54°58' E 018°21'9 9.2
2015-Jul-31 18:33N 54°57' E 018°37'1010.0
2015-Jul-31 17:33N 54°50' E 018°50'9 9.5
2015-Jul-31 16:33N 54°42' E 018°58'1110.9
2015-Jul-31 15:33N 54°32' E 018°49'9 9.3
2015-Jul-31 14:34N 54°25' E 018°40'0 0.4
2015-Jul-31 13:32N 54°24' E 018°40'0 0.0
2015-Jul-31 12:32N 54°24' E 018°40'0 0.0
2015-Jul-31 11:32N 54°24' E 018°40'0 0.0
2015-Jul-31 10:32N 54°24' E 018°40'0 0.0
2015-Jul-31 09:32N 54°24' E 018°40'0 0.0
2015-Jul-31 08:32N 54°24' E 018°40'0 0.0
2015-Jul-31 07:32N 54°24' E 018°40'0 0.0
2015-Jul-31 06:32N 54°24' E 018°40'0 0.0
2015-Jul-31 05:32N 54°24' E 018°40'0 0.0
2015-Jul-31 04:32N 54°24' E 018°40'0 0.0
2015-Jul-31 03:32N 54°24' E 018°40'0 0.0
2015-Jul-31 02:32N 54°24' E 018°40'0 0.0
2015-Jul-31 01:32N 54°24' E 018°40'0 0.0
2015-Jul-31 00:32N 54°24' E 018°40'0 0.0
2015-Jul-30 23:32N 54°24' E 018°40'0 0.0
2015-Jul-30 22:32N 54°24' E 018°40'0 0.0
2015-Jul-30 21:32N 54°24' E 018°40'0 0.0
2015-Jul-30 20:32N 54°24' E 018°40'0 0.0
2015-Jul-30 19:32N 54°24' E 018°40'0 0.0
2015-Jul-30 18:32N 54°24' E 018°40'0 0.0
2015-Jul-30 17:32N 54°24' E 018°40'0 0.0
2015-Jul-30 16:32N 54°24' E 018°40'0 0.0
2015-Jul-30 15:32N 54°24' E 018°40'0 0.0
2015-Jul-30 14:32N 54°24' E 018°40'0 0.0
2015-Jul-30 13:32N 54°24' E 018°40'0 0.0
2015-Jul-30 12:32N 54°24' E 018°40'0 0.0
2015-Jul-30 11:32N 54°24' E 018°40'0 0.0
2015-Jul-30 10:32N 54°24' E 018°40'0 0.0
2015-Jul-30 09:32N 54°24' E 018°40'0 0.0
2015-Jul-30 08:32N 54°24' E 018°40'0 0.0
2015-Jul-30 07:32N 54°24' E 018°40'0 0.0
2015-Jul-30 06:32N 54°24' E 018°40'0 0.0
2015-Jul-30 05:32N 54°24' E 018°40'0 0.0
2015-Jul-30 04:32N 54°24' E 018°40'0 0.0
2015-Jul-30 03:32N 54°24' E 018°40'0 0.0
2015-Jul-30 02:31N 54°24' E 018°40'0 0.0
2015-Jul-30 01:31N 54°24' E 018°40'0 0.0
2015-Jul-30 00:31N 54°24' E 018°40'0 0.0
2015-Jul-29 23:31N 54°24' E 018°40'0 0.0
2015-Jul-29 22:31N 54°24' E 018°40'0 0.0
2015-Jul-29 21:31N 54°24' E 018°40'0 0.0
2015-Jul-29 20:31N 54°24' E 018°40'0 0.0
2015-Jul-29 19:31N 54°24' E 018°40'0 0.0
2015-Jul-29 18:31N 54°24' E 018°40'0 0.0
2015-Jul-29 17:31N 54°24' E 018°40'0 0.0
2015-Jul-29 16:31N 54°24' E 018°40'0 0.0
2015-Jul-29 15:31N 54°24' E 018°40'0 0.0
2015-Jul-29 14:31N 54°24' E 018°40'0 0.0
2015-Jul-29 13:31N 54°24' E 018°40'0 0.0
2015-Jul-29 12:31N 54°24' E 018°40'0 0.0
2015-Jul-29 11:31N 54°24' E 018°40'0 0.0
2015-Jul-29 10:31N 54°24' E 018°40'0 0.0
2015-Jul-29 09:33N 54°24' E 018°40'4 3.4
2015-Jul-29 08:31N 54°28' E 018°40'0 0.0
2015-Jul-29 07:31N 54°28' E 018°40'0 0.0
2015-Jul-29 06:31N 54°28' E 018°40'0 0.0
2015-Jul-29 05:31N 54°28' E 018°40'0 0.0
2015-Jul-29 04:31N 54°28' E 018°40'0 0.0
2015-Jul-29 03:31N 54°28' E 018°40'0 0.0
2015-Jul-29 02:31N 54°28' E 018°40'0 0.0
2015-Jul-29 01:31N 54°28' E 018°40'0 0.0
2015-Jul-29 00:31N 54°28' E 018°40'0 0.0
2015-Jul-28 23:31N 54°28' E 018°40'0 0.0
2015-Jul-28 22:31N 54°28' E 018°40'0 0.0
2015-Jul-28 21:31N 54°28' E 018°40'0 0.0
2015-Jul-28 20:31N 54°28' E 018°40'1 1.5
2015-Jul-28 19:33N 54°29' E 018°42'1211.7
2015-Jul-28 18:33N 54°38' E 018°54'1211.6
2015-Jul-28 17:33N 54°49' E 018°57'1212.2
2015-Jul-28 16:33N 55°01' E 018°51'1312.4
2015-Jul-28 15:32N 55°13' E 018°43'18111.8
2015-Jul-28 00:08N 58°12' E 017°48'812.5
2015-Jul-27 23:32N 58°19' E 017°49'1612.8
2015-Jul-27 22:16N 58°35' E 017°51'912.0
2015-Jul-27 21:33N 58°44' E 017°51'11 9.3
2015-Jul-27 20:24N 58°54' E 017°49'  
2015-Jul-25 13:31N 57°20' E 017°42'1111.3
2015-Jul-25 12:33N 57°10' E 017°34'2711.2
2015-Jul-25 10:08N 56°45' E 017°18'811.3
2015-Jul-25 09:27N 56°38' E 017°13'5410.8
2015-Jul-25 04:29N 55°54' E 016°17'1111.5
2015-Jul-25 03:34N 55°49' E 016°00'1211.6
2015-Jul-25 02:34N 55°43' E 015°42'1211.7
2015-Jul-25 01:34N 55°37' E 015°24'1211.9
2015-Jul-25 00:34N 55°32' E 015°06'1212.0
2015-Jul-24 23:34N 55°26' E 014°47'1211.6
2015-Jul-24 22:34N 55°18' E 014°32'1211.7
2015-Jul-24 21:34N 55°11' E 014°16'1211.9
2015-Jul-24 20:34N 55°10' E 013°55'1211.9
2015-Jul-24 19:33N 55°12' E 013°34'1211.8
2015-Jul-24 18:34N 55°13' E 013°14'1211.8
2015-Jul-24 17:33N 55°15' E 012°53'1110.5
2015-Jul-24 16:34N 55°20' E 012°38'1111.2
2015-Jul-24 15:34N 55°31' E 012°42'8 8.3
2015-Jul-24 14:34N 55°39' E 012°41'1111.4
2015-Jul-24 13:33N 55°51' E 012°41'1111.5
2015-Jul-24 12:34N 56°02' E 012°39'1312.6
2015-Jul-24 11:33N 56°11' E 012°22'1212.4
2015-Jul-24 10:33N 56°18' E 012°04'1211.9
2015-Jul-24 09:33N 56°29' E 011°58'1212.0
2015-Jul-24 08:33N 56°41' E 011°53'1211.9
2015-Jul-24 07:33N 56°53' E 011°48'1212.1
2015-Jul-24 06:34N 57°04' E 011°40'1211.7
2015-Jul-24 05:34N 57°14' E 011°30'1312.3
2015-Jul-24 04:33N 57°25' E 011°20'1211.8
2015-Jul-24 03:34N 57°32' E 011°02'1212.3
2015-Jul-24 02:33N 57°39' E 010°42'4 3.7
2015-Jul-24 01:30N 57°41' E 010°37'0 0.0
2015-Jul-24 00:33N 57°41' E 010°37'0 0.0
2015-Jul-23 23:12N 57°41' E 010°37'5 7.2
2015-Jul-23 22:34N 57°44' E 010°43'1110.7
2015-Jul-23 21:31N 57°45' E 010°23'11412.6
2015-Jul-23 12:32N 56°45' E 007°24'1 1.2
2015-Jul-23 11:33N 56°45' E 007°22'8 8.2
2015-Jul-23 10:32N 56°37' E 007°19'  
Track history (hours):
 
Tides and Currents Weather Stations Pressure Air Temp Water Temp Dewpoint Dewpoint Depression Visibility Wind Speed Wind Dir Waves Ship Positions

Wilson Norfolk

Last reported at 2015-Aug-02 05:26 UTC. Time now 2015-Aug-02 14:20 UTC.
Position N 57°48' E 010°15'.

Length 123 m; draft 5.4 m.

Type: Ship. MMSI: 248678000.

Date/timePositionNaut miles runAvg speedWind from/ knotsBaromVisibWave heightAir tempDewpointWater temp
2015-Aug-02 05:26N 57°48' E 010°15'910.1
2015-Aug-02 04:33N 57°48' E 010°31'10 9.8
2015-Aug-02 03:32N 57°46' E 010°50'1110.9
2015-Aug-02 02:33N 57°39' E 011°05'1111.4
2015-Aug-02 01:33N 57°32' E 011°21'1211.6
2015-Aug-02 00:33N 57°22' E 011°31'1212.2
2015-Aug-01 23:33N 57°10' E 011°39'1312.5
2015-Aug-01 22:32N 56°58' E 011°47'1212.2
2015-Aug-01 21:33N 56°47' E 011°54'1211.8
2015-Aug-01 20:33N 56°36' E 012°00'1211.6
2015-Aug-01 19:33N 56°25' E 012°10'1212.4
2015-Aug-01 18:34N 56°15' E 012°23'1212.3
2015-Aug-01 17:33N 56°05' E 012°36'1312.9
2015-Aug-01 16:34N 55°53' E 012°45'1312.6
2015-Aug-01 15:33N 55°41' E 012°41'1211.9
2015-Aug-01 14:33N 55°29' E 012°42'1111.5
2015-Aug-01 13:34N 55°18' E 012°45'1211.9
2015-Aug-01 12:33N 55°13' E 013°04'1412.2
2015-Aug-01 11:25N 55°08' E 013°27'1012.0
2015-Aug-01 10:33N 55°04' E 013°43'1211.9
2015-Aug-01 09:33N 54°59' E 014°02'1211.8
2015-Aug-01 08:34N 54°57' E 014°22'1211.7
2015-Aug-01 07:34N 54°56' E 014°43'1211.6
2015-Aug-01 06:33N 54°54' E 015°03'1111.2
2015-Aug-01 05:33N 54°53' E 015°22'7610.5
2015-Jul-31 22:22N 54°56' E 017°34'13 9.9
2015-Jul-31 21:05N 54°57' E 017°55'5 9.9
2015-Jul-31 20:33N 54°57' E 018°05'10 9.7
2015-Jul-31 19:34N 54°58' E 018°21'9 9.2
2015-Jul-31 18:33N 54°57' E 018°37'1010.0
2015-Jul-31 17:33N 54°50' E 018°50'9 9.5
2015-Jul-31 16:33N 54°42' E 018°58'1110.9
2015-Jul-31 15:33N 54°32' E 018°49'9 9.3
2015-Jul-31 14:34N 54°25' E 018°40'0 0.4
2015-Jul-31 13:32N 54°24' E 018°40'0 0.0
2015-Jul-31 12:32N 54°24' E 018°40'0 0.0
2015-Jul-31 11:32N 54°24' E 018°40'0 0.0
2015-Jul-31 10:32N 54°24' E 018°40'0 0.0
2015-Jul-31 09:32N 54°24' E 018°40'0 0.0
2015-Jul-31 08:32N 54°24' E 018°40'0 0.0
2015-Jul-31 07:32N 54°24' E 018°40'0 0.0
2015-Jul-31 06:32N 54°24' E 018°40'0 0.0
2015-Jul-31 05:32N 54°24' E 018°40'0 0.0
2015-Jul-31 04:32N 54°24' E 018°40'0 0.0
2015-Jul-31 03:32N 54°24' E 018°40'0 0.0
2015-Jul-31 02:32N 54°24' E 018°40'0 0.0
2015-Jul-31 01:32N 54°24' E 018°40'0 0.0
2015-Jul-31 00:32N 54°24' E 018°40'0 0.0
2015-Jul-30 23:32N 54°24' E 018°40'0 0.0
2015-Jul-30 22:32N 54°24' E 018°40'0 0.0
2015-Jul-30 21:32N 54°24' E 018°40'0 0.0
2015-Jul-30 20:32N 54°24' E 018°40'0 0.0
2015-Jul-30 19:32N 54°24' E 018°40'0 0.0
2015-Jul-30 18:32N 54°24' E 018°40'0 0.0
2015-Jul-30 17:32N 54°24' E 018°40'0 0.0
2015-Jul-30 16:32N 54°24' E 018°40'0 0.0
2015-Jul-30 15:32N 54°24' E 018°40'0 0.0
2015-Jul-30 14:32N 54°24' E 018°40'0 0.0
2015-Jul-30 13:32N 54°24' E 018°40'0 0.0
2015-Jul-30 12:32N 54°24' E 018°40'0 0.0
2015-Jul-30 11:32N 54°24' E 018°40'0 0.0
2015-Jul-30 10:32N 54°24' E 018°40'0 0.0
2015-Jul-30 09:32N 54°24' E 018°40'0 0.0
2015-Jul-30 08:32N 54°24' E 018°40'0 0.0
2015-Jul-30 07:32N 54°24' E 018°40'0 0.0
2015-Jul-30 06:32N 54°24' E 018°40'0 0.0
2015-Jul-30 05:32N 54°24' E 018°40'0 0.0
2015-Jul-30 04:32N 54°24' E 018°40'0 0.0
2015-Jul-30 03:32N 54°24' E 018°40'0 0.0
2015-Jul-30 02:31N 54°24' E 018°40'0 0.0
2015-Jul-30 01:31N 54°24' E 018°40'0 0.0
2015-Jul-30 00:31N 54°24' E 018°40'0 0.0
2015-Jul-29 23:31N 54°24' E 018°40'0 0.0
2015-Jul-29 22:31N 54°24' E 018°40'0 0.0
2015-Jul-29 21:31N 54°24' E 018°40'0 0.0
2015-Jul-29 20:31N 54°24' E 018°40'0 0.0
2015-Jul-29 19:31N 54°24' E 018°40'0 0.0
2015-Jul-29 18:31N 54°24' E 018°40'0 0.0
2015-Jul-29 17:31N 54°24' E 018°40'0 0.0
2015-Jul-29 16:31N 54°24' E 018°40'0 0.0
2015-Jul-29 15:31N 54°24' E 018°40'0 0.0
2015-Jul-29 14:31N 54°24' E 018°40'0 0.0
2015-Jul-29 13:31N 54°24' E 018°40'0 0.0
2015-Jul-29 12:31N 54°24' E 018°40'0 0.0
2015-Jul-29 11:31N 54°24' E 018°40'0 0.0
2015-Jul-29 10:31N 54°24' E 018°40'0 0.0
2015-Jul-29 09:33N 54°24' E 018°40'4 3.4
2015-Jul-29 08:31N 54°28' E 018°40'0 0.0
2015-Jul-29 07:31N 54°28' E 018°40'0 0.0
2015-Jul-29 06:31N 54°28' E 018°40'0 0.0
2015-Jul-29 05:31N 54°28' E 018°40'0 0.0
2015-Jul-29 04:31N 54°28' E 018°40'0 0.0
2015-Jul-29 03:31N 54°28' E 018°40'0 0.0
2015-Jul-29 02:31N 54°28' E 018°40'0 0.0
2015-Jul-29 01:31N 54°28' E 018°40'0 0.0
2015-Jul-29 00:31N 54°28' E 018°40'0 0.0
2015-Jul-28 23:31N 54°28' E 018°40'0 0.0
2015-Jul-28 22:31N 54°28' E 018°40'0 0.0
2015-Jul-28 21:31N 54°28' E 018°40'0 0.0
2015-Jul-28 20:31N 54°28' E 018°40'1 1.5
2015-Jul-28 19:33N 54°29' E 018°42'1211.7
2015-Jul-28 18:33N 54°38' E 018°54'1211.6
2015-Jul-28 17:33N 54°49' E 018°57'1212.2
2015-Jul-28 16:33N 55°01' E 018°51'1312.4
2015-Jul-28 15:32N 55°13' E 018°43'18111.8
2015-Jul-28 00:08N 58°12' E 017°48'812.5
2015-Jul-27 23:32N 58°19' E 017°49'1612.8
2015-Jul-27 22:16N 58°35' E 017°51'912.0
2015-Jul-27 21:33N 58°44' E 017°51'11 9.3
2015-Jul-27 20:24N 58°54' E 017°49'  
2015-Jul-25 13:31N 57°20' E 017°42'1111.3
2015-Jul-25 12:33N 57°10' E 017°34'2711.2
2015-Jul-25 10:08N 56°45' E 017°18'811.3
2015-Jul-25 09:27N 56°38' E 017°13'5410.8
2015-Jul-25 04:29N 55°54' E 016°17'1111.5
2015-Jul-25 03:34N 55°49' E 016°00'1211.6
2015-Jul-25 02:34N 55°43' E 015°42'1211.7
2015-Jul-25 01:34N 55°37' E 015°24'1211.9
2015-Jul-25 00:34N 55°32' E 015°06'1212.0
2015-Jul-24 23:34N 55°26' E 014°47'1211.6
2015-Jul-24 22:34N 55°18' E 014°32'1211.7
2015-Jul-24 21:34N 55°11' E 014°16'1211.9
2015-Jul-24 20:34N 55°10' E 013°55'1211.9
2015-Jul-24 19:33N 55°12' E 013°34'1211.8
2015-Jul-24 18:34N 55°13' E 013°14'1211.8
2015-Jul-24 17:33N 55°15' E 012°53'1110.5
2015-Jul-24 16:34N 55°20' E 012°38'1111.2
2015-Jul-24 15:34N 55°31' E 012°42'8 8.3
2015-Jul-24 14:34N 55°39' E 012°41'1111.4
2015-Jul-24 13:33N 55°51' E 012°41'1111.5
2015-Jul-24 12:34N 56°02' E 012°39'1312.6
2015-Jul-24 11:33N 56°11' E 012°22'1212.4
2015-Jul-24 10:33N 56°18' E 012°04'1211.9
2015-Jul-24 09:33N 56°29' E 011°58'1212.0
2015-Jul-24 08:33N 56°41' E 011°53'1211.9
2015-Jul-24 07:33N 56°53' E 011°48'1212.1
2015-Jul-24 06:34N 57°04' E 011°40'1211.7
2015-Jul-24 05:34N 57°14' E 011°30'1312.3
2015-Jul-24 04:33N 57°25' E 011°20'1211.8
2015-Jul-24 03:34N 57°32' E 011°02'1212.3
2015-Jul-24 02:33N 57°39' E 010°42'4 3.7
2015-Jul-24 01:30N 57°41' E 010°37'0 0.0
2015-Jul-24 00:33N 57°41' E 010°37'0 0.0
2015-Jul-23 23:12N 57°41' E 010°37'5 7.2
2015-Jul-23 22:34N 57°44' E 010°43'1110.7
2015-Jul-23 21:31N 57°45' E 010°23'11412.6
2015-Jul-23 12:32N 56°45' E 007°24'1 1.2
2015-Jul-23 11:33N 56°45' E 007°22'8 8.2
2015-Jul-23 10:32N 56°37' E 007°19'  

Dump ship's entire track history